createdAt,value
2022-09-28T00:01:55.611Z,0.20
2022-09-28T00:04:24.536Z,1.13
2022-09-28T00:06:51.924Z,0.00
2022-09-28T00:09:19.349Z,0.03
2022-09-28T00:11:47.140Z,0.00
2022-09-28T00:14:15.392Z,0.10
2022-09-28T00:16:44.763Z,0.10
2022-09-28T00:19:13.619Z,0.00
2022-09-28T00:21:42.853Z,0.10
2022-09-28T00:24:15.190Z,0.35
2022-09-28T00:26:46.031Z,0.10
2022-09-28T00:29:22.960Z,0.10
2022-09-28T00:31:53.144Z,0.05
2022-09-28T00:34:21.425Z,0.10
2022-09-28T00:36:50.205Z,0.10
2022-09-28T00:39:18.280Z,0.05
2022-09-28T00:41:47.035Z,0.80
2022-09-28T00:44:36.527Z,0.10
2022-09-28T00:47:10.480Z,0.00
2022-09-28T00:49:43.257Z,0.10
2022-09-28T00:52:15.614Z,0.10
2022-09-28T00:54:46.720Z,0.00
2022-09-28T00:57:14.966Z,0.10
2022-09-28T00:59:43.131Z,0.25
2022-09-28T01:02:11.726Z,0.10
2022-09-28T01:04:51.398Z,0.10
2022-09-28T01:07:20.840Z,0.00
2022-09-28T01:09:49.284Z,0.00
2022-09-28T01:12:18.524Z,2.38
2022-09-28T01:14:46.594Z,0.55
2022-09-28T01:17:16.876Z,0.10
2022-09-28T01:20:06.630Z,0.10
2022-09-28T01:23:26.050Z,0.10
2022-09-28T01:25:56.506Z,0.65
2022-09-28T01:28:28.584Z,0.05
2022-09-28T01:31:06.541Z,0.10
2022-09-28T01:33:40.741Z,0.10
2022-09-28T01:36:13.235Z,0.00
2022-09-28T01:38:47.428Z,0.50
2022-09-28T01:41:17.723Z,0.10
2022-09-28T01:43:51.079Z,0.00
2022-09-28T01:46:22.485Z,0.10
2022-09-28T01:48:55.152Z,0.57
2022-09-28T01:51:30.116Z,0.35
2022-09-28T01:54:02.750Z,0.10
2022-09-28T01:56:36.246Z,0.00
2022-09-28T01:59:11.428Z,0.68
2022-09-28T02:01:42.472Z,0.10
2022-09-28T02:04:14.476Z,0.10
2022-09-28T02:06:48.580Z,0.05
2022-09-28T02:09:20.197Z,0.10
2022-09-28T02:11:53.617Z,0.10
2022-09-28T02:14:23.894Z,0.43
2022-09-28T02:16:54.192Z,0.00
2022-09-28T02:19:25.729Z,0.20
2022-09-28T02:21:58.000Z,0.13
2022-09-28T02:24:29.667Z,0.10
2022-09-28T02:27:01.275Z,0.65
2022-09-28T02:29:30.156Z,0.10
2022-09-28T02:31:57.551Z,0.10
2022-09-28T02:34:25.833Z,0.68
2022-09-28T02:36:53.467Z,0.00
2022-09-28T02:39:21.063Z,0.30
2022-09-28T02:42:02.688Z,0.10
2022-09-28T02:44:44.508Z,2.00
2022-09-28T02:47:22.779Z,0.10
2022-09-28T02:49:57.901Z,0.20
2022-09-28T02:52:54.729Z,0.10
2022-09-28T02:55:35.120Z,0.10
2022-09-28T02:58:21.465Z,0.10
2022-09-28T03:00:56.273Z,0.32
2022-09-28T03:03:33.152Z,0.00
2022-09-28T03:06:04.530Z,0.10
2022-09-28T03:08:38.284Z,0.10
2022-09-28T03:11:10.379Z,0.00
2022-09-28T03:13:38.673Z,0.20
2022-09-28T03:16:12.101Z,0.10
2022-09-28T03:18:39.868Z,0.38
2022-09-28T03:21:07.942Z,0.00
2022-09-28T03:23:35.361Z,0.10
2022-09-28T03:26:02.729Z,0.30
2022-09-28T03:28:30.319Z,0.10
2022-09-28T03:30:57.878Z,0.80
2022-09-28T03:33:26.567Z,1.02
2022-09-28T03:35:54.163Z,0.10
2022-09-28T03:38:22.378Z,0.10
2022-09-28T03:40:56.821Z,0.10
2022-09-28T03:43:24.291Z,0.22
2022-09-28T03:45:55.557Z,0.00
2022-09-28T03:48:26.748Z,0.00
2022-09-28T03:51:00.342Z,0.03
2022-09-28T03:53:29.499Z,0.10
2022-09-28T03:55:57.021Z,0.73
2022-09-28T03:58:24.495Z,0.00
2022-09-28T04:00:52.326Z,0.32
2022-09-28T04:03:19.820Z,1.85
2022-09-28T04:05:50.952Z,0.52
2022-09-28T04:08:20.859Z,0.98
2022-09-28T04:10:48.251Z,1.08
2022-09-28T04:13:16.144Z,0.10
2022-09-28T04:15:44.257Z,1.08
2022-09-28T04:18:13.424Z,1.10
2022-09-28T04:20:41.352Z,1.17
2022-09-28T04:23:08.722Z,1.83
2022-09-28T04:25:37.440Z,0.73
2022-09-28T04:28:22.284Z,0.52
2022-09-28T04:30:49.776Z,0.38
2022-09-28T04:33:17.149Z,1.00
2022-09-28T04:35:44.820Z,0.10
2022-09-28T04:38:12.164Z,0.50
2022-09-28T04:40:40.875Z,0.77
2022-09-28T04:43:09.140Z,0.38
2022-09-28T04:45:36.526Z,0.50
2022-09-28T04:48:07.204Z,0.17
2022-09-28T04:50:34.666Z,0.93
2022-09-28T04:53:02.108Z,2.80
2022-09-28T04:55:32.240Z,1.67
2022-09-28T04:58:02.408Z,0.65
2022-09-28T05:00:32.629Z,1.13
2022-09-28T05:03:00.014Z,1.48
2022-09-28T05:05:28.835Z,0.95
2022-09-28T05:07:58.997Z,0.30
2022-09-28T05:10:26.332Z,0.88
2022-09-28T05:12:53.718Z,0.98
2022-09-28T05:15:22.546Z,0.80
2022-09-28T05:17:49.879Z,3.35
2022-09-28T05:20:17.323Z,1.65
2022-09-28T05:22:44.666Z,1.20
2022-09-28T05:25:12.023Z,1.67
2022-09-28T05:27:39.414Z,1.27
2022-09-28T05:30:08.279Z,1.48
2022-09-28T05:32:40.893Z,0.25
2022-09-28T05:35:11.008Z,0.10
2022-09-28T05:37:38.373Z,1.25
2022-09-28T05:40:06.630Z,0.88
2022-09-28T05:42:34.074Z,1.75
2022-09-28T05:45:03.240Z,5.00
2022-09-28T05:47:30.850Z,1.60
2022-09-28T05:49:59.585Z,0.98
2022-09-28T05:52:26.938Z,0.10
2022-09-28T05:54:54.467Z,0.63
2022-09-28T05:57:21.822Z,2.17
2022-09-28T05:59:49.373Z,3.63
2022-09-28T06:02:16.842Z,2.53
2022-09-28T06:04:44.256Z,1.65
2022-09-28T06:07:13.080Z,3.05
2022-09-28T06:09:40.437Z,1.48
2022-09-28T06:12:08.079Z,1.40
2022-09-28T06:14:35.538Z,2.55
2022-09-28T06:17:02.999Z,5.60
2022-09-28T06:19:30.443Z,4.57
2022-09-28T06:21:59.468Z,3.58
2022-09-28T06:24:28.246Z,2.40
2022-09-28T06:26:55.588Z,3.13
2022-09-28T06:29:22.938Z,2.60
2022-09-28T06:31:51.455Z,4.60
2022-09-28T06:34:19.120Z,6.57
2022-09-28T06:36:47.331Z,2.15
2022-09-28T06:39:14.836Z,5.03
2022-09-28T06:41:44.079Z,4.57
2022-09-28T06:44:11.483Z,2.38
2022-09-28T06:46:40.139Z,4.90
2022-09-28T06:49:09.156Z,1.95
2022-09-28T06:51:37.608Z,4.68
2022-09-28T06:54:05.008Z,2.42
2022-09-28T06:56:33.187Z,5.10
2022-09-28T06:59:02.093Z,3.58
2022-09-28T07:01:29.598Z,5.35
2022-09-28T07:03:57.757Z,5.63
2022-09-28T07:06:26.631Z,2.80
2022-09-28T07:09:07.593Z,4.45
2022-09-28T07:11:41.348Z,2.85
2022-09-28T07:14:17.482Z,4.05
2022-09-28T07:17:11.574Z,2.22
2022-09-28T07:19:37.035Z,1.13
2022-09-28T07:22:05.655Z,4.80
2022-09-28T07:24:33.165Z,3.38
2022-09-28T07:27:03.370Z,5.28
2022-09-28T07:29:32.101Z,0.80
2022-09-28T07:31:59.973Z,3.75
2022-09-28T07:34:27.491Z,1.77
2022-09-28T07:36:59.558Z,0.82
2022-09-28T07:39:27.010Z,2.28
2022-09-28T07:41:56.651Z,3.45
2022-09-28T07:44:27.819Z,3.72
2022-09-28T07:46:56.588Z,3.50
2022-09-28T07:49:24.190Z,5.13
2022-09-28T07:51:51.540Z,4.45
2022-09-28T07:54:19.784Z,3.63
2022-09-28T07:56:47.320Z,1.42
2022-09-28T07:59:17.447Z,3.10
2022-09-28T08:01:45.258Z,2.65
2022-09-28T08:04:14.178Z,3.65
2022-09-28T08:06:41.815Z,1.70
2022-09-28T08:09:09.214Z,1.48
2022-09-28T08:11:36.619Z,1.25
2022-09-28T08:14:04.053Z,2.53
2022-09-28T08:16:32.241Z,2.40
2022-09-28T08:18:59.726Z,2.10
2022-09-28T08:21:45.955Z,1.60
2022-09-28T08:24:13.917Z,1.90
2022-09-28T08:26:42.171Z,2.33
2022-09-28T08:29:09.832Z,1.35
2022-09-28T08:31:37.320Z,1.58
2022-09-28T08:34:04.723Z,2.20
2022-09-28T08:36:33.802Z,3.13
2022-09-28T08:39:01.161Z,2.33
2022-09-28T08:41:39.205Z,1.45
2022-09-28T08:44:15.694Z,1.90
2022-09-28T08:46:46.408Z,0.95
2022-09-28T08:49:26.761Z,0.90
2022-09-28T08:52:01.896Z,2.22
2022-09-28T08:54:39.590Z,2.05
2022-09-28T08:57:12.208Z,0.77
2022-09-28T08:59:47.773Z,1.20
2022-09-28T09:02:19.499Z,1.08
2022-09-28T09:04:47.028Z,0.98
2022-09-28T09:07:29.843Z,1.23
2022-09-28T09:10:06.667Z,2.30
2022-09-28T09:12:44.164Z,2.08
2022-09-28T09:15:22.670Z,3.97
2022-09-28T09:18:01.837Z,0.57
2022-09-28T09:20:38.949Z,1.05
2022-09-28T09:23:18.007Z,3.75
2022-09-28T09:25:50.424Z,1.70
2022-09-28T09:28:45.285Z,0.65
2022-09-28T09:31:27.046Z,0.63
2022-09-28T09:34:17.813Z,1.60
2022-09-28T09:36:58.501Z,2.45
2022-09-28T09:39:42.432Z,2.47
2022-09-28T09:42:23.503Z,1.45
2022-09-28T09:45:15.311Z,1.13
2022-09-28T09:47:46.584Z,1.27
2022-09-28T09:50:29.640Z,1.17
2022-09-28T09:53:01.508Z,1.15
2022-09-28T09:55:34.661Z,1.73
2022-09-28T10:00:34.630Z,1.58
2022-09-28T10:03:02.972Z,0.93
2022-09-28T10:05:32.279Z,0.82
2022-09-28T10:08:05.268Z,2.50
2022-09-28T10:10:37.539Z,5.07
2022-09-28T10:13:05.336Z,0.37
2022-09-28T10:15:35.224Z,1.65
2022-09-28T10:18:06.594Z,0.90
2022-09-28T10:20:37.921Z,0.43
2022-09-28T10:23:12.219Z,1.20
2022-09-28T10:25:44.097Z,1.58
2022-09-28T10:28:20.047Z,0.73
2022-09-28T10:30:47.524Z,1.20
2022-09-28T10:33:32.320Z,0.90
2022-09-28T10:36:01.191Z,0.85
2022-09-28T10:38:30.480Z,0.40
2022-09-28T10:41:03.525Z,1.10
2022-09-28T10:46:03.625Z,0.03
2022-09-28T10:48:38.096Z,0.93
2022-09-28T10:51:08.501Z,0.95
2022-09-28T10:53:37.899Z,0.52
2022-09-28T10:56:19.067Z,3.25
2022-09-28T10:58:46.461Z,2.50
2022-09-28T11:01:18.527Z,0.68
2022-09-28T11:03:52.204Z,0.10
2022-09-28T11:06:26.706Z,0.80
2022-09-28T11:08:57.456Z,0.52
2022-09-28T11:11:26.648Z,1.30
2022-09-28T11:13:57.347Z,1.10
2022-09-28T11:16:28.469Z,0.80
2022-09-28T11:18:58.824Z,1.77
2022-09-28T11:21:28.756Z,1.15
2022-09-28T11:23:58.657Z,0.43
2022-09-28T11:26:28.831Z,1.88
2022-09-28T11:28:56.699Z,1.35
2022-09-28T11:31:29.258Z,1.17
2022-09-28T11:34:15.020Z,3.10
2022-09-28T11:37:00.947Z,1.23
2022-09-28T11:39:39.759Z,0.08
2022-09-28T11:42:18.397Z,1.33
2022-09-28T11:44:47.668Z,1.77
2022-09-28T11:47:30.181Z,0.43
2022-09-28T11:50:03.898Z,0.93
2022-09-28T11:52:40.362Z,0.32
2022-09-28T11:55:16.601Z,0.77
2022-09-28T11:57:49.094Z,0.50
2022-09-28T12:00:20.459Z,1.80
2022-09-28T12:02:55.167Z,0.85
2022-09-28T12:05:25.625Z,0.85
2022-09-28T12:07:56.631Z,0.00
2022-09-28T12:10:32.791Z,0.55
2022-09-28T12:13:04.250Z,0.10
2022-09-28T12:16:07.773Z,1.40
2022-09-28T12:18:39.755Z,0.85
2022-09-28T12:21:19.844Z,0.60
2022-09-28T12:23:49.593Z,0.10
2022-09-28T12:26:31.025Z,0.55
2022-09-28T12:29:07.466Z,0.40
2022-09-28T12:31:40.668Z,0.95
2022-09-28T12:34:10.581Z,0.10
2022-09-28T12:36:48.899Z,0.22
2022-09-28T12:39:46.886Z,0.93
2022-09-28T12:42:34.162Z,0.35
2022-09-28T12:45:21.060Z,1.13
2022-09-28T12:48:19.199Z,1.30
2022-09-28T12:50:57.902Z,0.68
2022-09-28T12:53:48.625Z,0.57
2022-09-28T12:56:23.759Z,0.40
2022-09-28T12:59:06.463Z,0.70
2022-09-28T13:01:48.367Z,0.82
2022-09-28T13:04:35.079Z,0.90
2022-09-28T13:07:08.037Z,1.33
2022-09-28T13:09:47.709Z,0.70
2022-09-28T13:12:25.081Z,0.73
2022-09-28T13:15:10.448Z,0.40
2022-09-28T13:17:51.321Z,0.00
2022-09-28T13:20:32.074Z,0.30
2022-09-28T13:23:10.772Z,0.35
2022-09-28T13:25:41.959Z,0.00
2022-09-28T13:28:15.452Z,0.20
2022-09-28T13:30:45.880Z,0.35
2022-09-28T13:33:21.684Z,0.20
2022-09-28T13:35:49.474Z,0.10
2022-09-28T13:38:47.080Z,0.20
2022-09-28T13:41:17.520Z,0.00
2022-09-28T13:44:05.334Z,0.45
2022-09-28T13:46:41.725Z,0.40
2022-09-28T13:49:18.347Z,0.45
2022-09-28T13:52:03.278Z,0.30
2022-09-28T13:54:52.442Z,0.95
2022-09-28T13:57:25.935Z,0.20
2022-09-28T14:00:10.300Z,0.73
2022-09-28T14:02:43.134Z,0.00
2022-09-28T14:05:43.004Z,0.85
2022-09-28T14:08:28.899Z,0.93
2022-09-28T14:10:57.204Z,0.57
2022-09-28T14:13:59.328Z,0.57
2022-09-28T14:16:28.229Z,1.27
2022-09-28T14:18:59.287Z,0.95
2022-09-28T14:21:51.451Z,0.60
2022-09-28T14:24:31.402Z,1.25
2022-09-28T14:27:23.534Z,1.08
2022-09-28T14:29:56.124Z,1.77
2022-09-28T14:32:33.008Z,0.15
2022-09-28T14:35:04.423Z,0.77
2022-09-28T14:37:52.169Z,0.60
2022-09-28T14:40:43.756Z,0.85
2022-09-28T14:43:27.169Z,0.10
2022-09-28T14:46:27.985Z,0.47
2022-09-28T14:48:57.027Z,0.40
2022-09-28T14:52:07.877Z,1.63
2022-09-28T14:54:54.179Z,0.50
2022-09-28T14:57:29.844Z,0.93
2022-09-28T15:00:00.446Z,0.65
2022-09-28T15:02:32.951Z,0.57
2022-09-28T15:05:11.736Z,0.52
2022-09-28T15:07:47.958Z,0.00
2022-09-28T15:10:32.252Z,0.10
2022-09-28T15:13:03.795Z,0.60
2022-09-28T15:15:34.611Z,0.20
2022-09-28T15:18:14.058Z,0.05
2022-09-28T15:20:44.015Z,0.10
2022-09-28T15:23:26.487Z,0.28
2022-09-28T15:25:55.009Z,0.30
2022-09-28T15:28:25.267Z,0.00
2022-09-28T15:30:59.575Z,0.00
2022-09-28T15:33:46.095Z,0.00
2022-09-28T15:36:19.876Z,0.00
2022-09-28T15:38:57.371Z,0.05
2022-09-28T15:41:26.204Z,0.00
2022-09-28T15:44:09.366Z,0.03
2022-09-28T15:46:39.520Z,0.00
2022-09-28T15:49:08.288Z,0.00
2022-09-28T15:51:48.062Z,0.13
2022-09-28T15:54:19.412Z,0.00
2022-09-28T15:56:53.512Z,0.75
2022-09-28T15:59:28.256Z,0.00
2022-09-28T16:02:08.225Z,0.35
2022-09-28T16:04:38.250Z,0.50
2022-09-28T16:07:18.111Z,0.00
2022-09-28T16:09:56.513Z,0.05
2022-09-28T16:12:27.509Z,0.32
2022-09-28T16:14:56.774Z,0.22
2022-09-28T16:17:32.633Z,0.00
2022-09-28T16:20:03.069Z,0.00
2022-09-28T16:22:33.234Z,0.00
2022-09-28T16:25:02.770Z,0.00
2022-09-28T16:27:39.871Z,0.00
2022-09-28T16:30:20.097Z,0.00
2022-09-28T16:32:52.505Z,0.00
2022-09-28T16:35:25.344Z,0.10
2022-09-28T16:37:59.806Z,0.10
2022-09-28T16:40:28.262Z,0.52
2022-09-28T16:42:59.613Z,0.90
2022-09-28T16:45:28.336Z,0.10
2022-09-28T16:47:57.248Z,0.00
2022-09-28T16:50:25.584Z,0.13
2022-09-28T16:53:17.331Z,0.10
2022-09-28T16:55:46.184Z,0.20
2022-09-28T16:58:13.541Z,0.10
2022-09-28T17:00:43.304Z,0.10
2022-09-28T17:03:14.208Z,0.00
2022-09-28T17:05:41.795Z,0.10
2022-09-28T17:08:14.585Z,0.10
2022-09-28T17:11:02.481Z,0.20
2022-09-28T17:13:34.791Z,0.32
2022-09-28T17:16:10.257Z,0.80
2022-09-28T17:18:38.928Z,0.17
2022-09-28T17:21:07.919Z,0.30
2022-09-28T17:23:35.304Z,0.10
2022-09-28T17:26:03.654Z,0.10
2022-09-28T17:28:33.533Z,0.38
2022-09-28T17:31:01.065Z,0.00
2022-09-28T17:33:30.166Z,0.10
2022-09-28T17:36:01.084Z,0.05
2022-09-28T17:38:29.016Z,0.00
2022-09-28T17:40:56.429Z,0.10
2022-09-28T17:43:23.848Z,0.10
2022-09-28T17:45:51.314Z,0.80
2022-09-28T17:48:21.703Z,0.10
2022-09-28T17:50:51.113Z,0.00
2022-09-28T17:53:18.521Z,0.10
2022-09-28T17:55:46.199Z,0.00
2022-09-28T17:58:17.596Z,0.10
2022-09-28T18:00:47.017Z,0.10
2022-09-28T18:03:17.452Z,1.02
2022-09-28T18:05:45.631Z,0.10
2022-09-28T18:08:17.909Z,0.00
2022-09-28T18:10:46.757Z,0.00
2022-09-28T18:13:14.341Z,0.00
2022-09-28T18:15:41.915Z,0.10
2022-09-28T18:18:10.313Z,0.10
2022-09-28T18:20:38.277Z,0.10
2022-09-28T18:23:06.091Z,0.10
2022-09-28T18:25:34.945Z,0.00
2022-09-28T18:28:02.483Z,0.00
2022-09-28T18:30:29.997Z,0.35
2022-09-28T18:32:57.408Z,0.63
2022-09-28T18:35:24.825Z,0.20
2022-09-28T18:37:52.604Z,0.38
2022-09-28T18:40:20.365Z,0.15
2022-09-28T18:42:50.693Z,0.40
2022-09-28T18:45:18.508Z,0.00
2022-09-28T18:47:46.401Z,0.10
2022-09-28T18:50:15.332Z,0.00
2022-09-28T18:52:44.436Z,0.10
2022-09-28T18:55:13.066Z,0.10
2022-09-28T18:57:41.804Z,0.10
2022-09-28T19:00:14.614Z,0.10
2022-09-28T19:02:42.311Z,0.13
2022-09-28T19:05:10.052Z,0.10
2022-09-28T19:07:37.486Z,0.10
2022-09-28T19:10:05.802Z,0.10
2022-09-28T19:12:33.585Z,0.00
2022-09-28T19:15:02.510Z,0.10
2022-09-28T19:17:31.293Z,0.00
2022-09-28T19:19:58.745Z,0.10
2022-09-28T19:22:26.381Z,0.20
2022-09-28T19:24:53.840Z,0.32
2022-09-28T19:27:21.301Z,0.70
2022-09-28T19:29:48.818Z,0.70
2022-09-28T19:32:16.346Z,0.10
2022-09-28T19:34:45.292Z,0.10
2022-09-28T19:37:12.769Z,0.20
2022-09-28T19:39:40.203Z,0.10
2022-09-28T19:42:07.687Z,0.10
2022-09-28T19:44:35.717Z,0.00
2022-09-28T19:47:06.940Z,1.40
2022-09-28T19:49:37.059Z,0.00
2022-09-28T19:52:13.452Z,0.10
2022-09-28T19:54:43.742Z,0.25
2022-09-28T19:57:11.442Z,0.10
2022-09-28T19:59:39.568Z,0.00
2022-09-28T20:02:08.697Z,0.10
2022-09-28T20:04:36.479Z,0.52
2022-09-28T20:07:04.304Z,0.00
2022-09-28T20:09:33.937Z,0.30
2022-09-28T20:12:01.703Z,0.00
2022-09-28T20:14:33.100Z,0.22
2022-09-28T20:17:04.118Z,0.10
2022-09-28T20:19:31.794Z,0.10
2022-09-28T20:22:02.111Z,0.20
2022-09-28T20:24:29.776Z,0.00
2022-09-28T20:26:58.552Z,4.78
2022-09-28T20:29:26.610Z,0.10
2022-09-28T20:31:54.080Z,0.00
2022-09-28T20:34:21.537Z,0.10
2022-09-28T20:36:48.970Z,0.30
2022-09-28T20:39:16.465Z,0.10
2022-09-28T20:41:45.920Z,0.10
2022-09-28T20:44:14.785Z,4.20
2022-09-28T20:46:43.891Z,0.40
2022-09-28T20:49:11.664Z,0.20
2022-09-28T20:51:39.112Z,0.08
2022-09-28T20:54:06.733Z,0.10
2022-09-28T20:56:38.019Z,0.35
2022-09-28T20:59:05.953Z,0.00
2022-09-28T21:01:34.852Z,0.10
2022-09-28T21:04:04.731Z,0.10
2022-09-28T21:06:33.900Z,0.10
2022-09-28T21:09:02.120Z,0.82
2022-09-28T21:11:30.604Z,0.10
2022-09-28T21:13:59.905Z,0.65
2022-09-28T21:16:30.151Z,0.10
2022-09-28T21:18:59.171Z,0.85
2022-09-28T21:21:28.038Z,0.90
2022-09-28T21:23:56.698Z,0.30
2022-09-28T21:26:27.049Z,0.20
2022-09-28T21:28:55.453Z,0.45
2022-09-28T21:31:28.855Z,0.77
2022-09-28T21:33:57.186Z,0.75
2022-09-28T21:36:26.443Z,0.22
2022-09-28T21:38:54.964Z,0.55
2022-09-28T21:41:22.503Z,0.10
2022-09-28T21:43:50.014Z,1.33
2022-09-28T21:46:17.947Z,0.20
2022-09-28T21:48:45.582Z,0.93
2022-09-28T21:51:15.330Z,1.35
2022-09-28T21:53:44.119Z,0.10
2022-09-28T21:56:13.387Z,0.82
2022-09-28T21:58:41.388Z,0.90
2022-09-28T22:01:12.014Z,1.02
2022-09-28T22:03:39.779Z,0.20
2022-09-28T22:06:08.315Z,0.10
2022-09-28T22:08:37.293Z,1.67
2022-09-28T22:11:08.121Z,0.57
2022-09-28T22:13:36.980Z,0.25
2022-09-28T22:16:04.573Z,4.10
2022-09-28T22:18:33.887Z,0.20
2022-09-28T22:21:03.627Z,1.85
2022-09-28T22:23:31.422Z,0.10
2022-09-28T22:26:00.000Z,0.10
2022-09-28T22:28:29.320Z,0.95
2022-09-28T22:30:57.147Z,0.30
2022-09-28T22:33:25.338Z,1.80
2022-09-28T22:35:53.538Z,0.75
2022-09-28T22:38:22.279Z,0.10
2022-09-28T22:40:50.525Z,2.70
2022-09-28T22:43:19.265Z,0.25
2022-09-28T22:45:48.035Z,0.10
2022-09-28T22:48:15.443Z,0.50
2022-09-28T22:50:49.764Z,0.10
2022-09-28T22:53:17.262Z,0.95
2022-09-28T22:55:44.914Z,0.10
2022-09-28T22:58:12.538Z,0.10
2022-09-28T23:00:40.295Z,2.75
2022-09-28T23:03:09.130Z,0.75
2022-09-28T23:05:36.803Z,0.10
2022-09-28T23:08:04.431Z,0.55
2022-09-28T23:10:31.871Z,0.10
2022-09-28T23:12:59.555Z,0.10
2022-09-28T23:15:28.380Z,0.45
2022-09-28T23:17:55.982Z,0.43
2022-09-28T23:20:25.129Z,1.02
2022-09-28T23:22:52.556Z,0.10
2022-09-28T23:25:20.597Z,0.43
2022-09-28T23:27:48.891Z,0.85
2022-09-28T23:30:18.963Z,0.15
2022-09-28T23:32:46.512Z,1.00
2022-09-28T23:35:15.072Z,0.55
2022-09-28T23:37:43.834Z,0.20
2022-09-28T23:40:11.592Z,0.25
2022-09-28T23:42:39.046Z,0.73
2022-09-28T23:45:07.251Z,0.20
2022-09-28T23:47:37.191Z,0.40
2022-09-28T23:50:05.132Z,0.20
2022-09-28T23:52:32.628Z,0.20
2022-09-28T23:55:01.396Z,1.23
2022-09-28T23:57:28.847Z,1.50
2022-09-28T23:59:56.299Z,0.57
